sensor_id;sensor_type;location;lat;lon;timestamp;P1;durP1;ratioP1;P2;durP2;ratioP2
22660;SDS011;11497;52.222;21.246;2023-07-09T00:02:17;12.18;;;8.77;;
22660;SDS011;11497;52.222;21.246;2023-07-09T00:04:45;10.57;;;8.40;;
22660;SDS011;11497;52.222;21.246;2023-07-09T00:07:15;12.32;;;8.60;;
22660;SDS011;11497;52.222;21.246;2023-07-09T00:09:44;11.68;;;7.75;;
22660;SDS011;11497;52.222;21.246;2023-07-09T00:12:13;12.73;;;8.30;;
22660;SDS011;11497;52.222;21.246;2023-07-09T00:14:41;12.55;;;8.85;;
22660;SDS011;11497;52.222;21.246;2023-07-09T00:17:15;12.38;;;7.55;;
22660;SDS011;11497;52.222;21.246;2023-07-09T00:19:44;11.98;;;7.43;;
22660;SDS011;11497;52.222;21.246;2023-07-09T00:22:16;11.43;;;8.73;;
22660;SDS011;11497;52.222;21.246;2023-07-09T00:24:44;10.90;;;7.80;;
22660;SDS011;11497;52.222;21.246;2023-07-09T00:27:12;10.95;;;7.93;;
22660;SDS011;11497;52.222;21.246;2023-07-09T00:29:41;12.43;;;7.80;;
22660;SDS011;11497;52.222;21.246;2023-07-09T00:32:16;14.13;;;7.50;;
22660;SDS011;11497;52.222;21.246;2023-07-09T00:34:47;11.07;;;7.60;;
22660;SDS011;11497;52.222;21.246;2023-07-09T00:37:17;9.68;;;7.90;;
22660;SDS011;11497;52.222;21.246;2023-07-09T00:39:47;9.30;;;7.38;;
22660;SDS011;11497;52.222;21.246;2023-07-09T00:42:15;10.75;;;7.85;;
22660;SDS011;11497;52.222;21.246;2023-07-09T00:44:45;10.45;;;7.95;;
22660;SDS011;11497;52.222;21.246;2023-07-09T00:49:56;11.20;;;7.78;;
22660;SDS011;11497;52.222;21.246;2023-07-09T00:52:28;12.52;;;8.32;;
22660;SDS011;11497;52.222;21.246;2023-07-09T00:55:02;10.18;;;7.40;;
22660;SDS011;11497;52.222;21.246;2023-07-09T00:57:35;14.00;;;7.97;;
22660;SDS011;11497;52.222;21.246;2023-07-09T01:00:08;11.48;;;8.38;;
22660;SDS011;11497;52.222;21.246;2023-07-09T01:02:37;9.85;;;8.05;;
22660;SDS011;11497;52.222;21.246;2023-07-09T01:05:07;9.45;;;7.45;;
22660;SDS011;11497;52.222;21.246;2023-07-09T01:07:35;13.52;;;7.75;;
22660;SDS011;11497;52.222;21.246;2023-07-09T01:10:03;10.90;;;7.88;;
22660;SDS011;11497;52.222;21.246;2023-07-09T01:12:30;14.55;;;8.05;;
22660;SDS011;11497;52.222;21.246;2023-07-09T01:14:58;10.30;;;8.07;;
22660;SDS011;11497;52.222;21.246;2023-07-09T01:17:27;12.52;;;8.02;;
22660;SDS011;11497;52.222;21.246;2023-07-09T01:19:56;10.93;;;8.00;;
22660;SDS011;11497;52.222;21.246;2023-07-09T01:22:23;9.40;;;8.23;;
22660;SDS011;11497;52.222;21.246;2023-07-09T01:24:53;11.82;;;7.75;;
22660;SDS011;11497;52.222;21.246;2023-07-09T01:27:26;13.20;;;8.23;;
22660;SDS011;11497;52.222;21.246;2023-07-09T01:29:56;9.70;;;7.93;;
22660;SDS011;11497;52.222;21.246;2023-07-09T01:32:26;10.85;;;8.15;;
22660;SDS011;11497;52.222;21.246;2023-07-09T01:34:58;13.10;;;8.15;;
22660;SDS011;11497;52.222;21.246;2023-07-09T01:37:32;13.45;;;8.88;;
22660;SDS011;11497;52.222;21.246;2023-07-09T01:40:00;11.43;;;7.72;;
22660;SDS011;11497;52.222;21.246;2023-07-09T01:42:28;12.38;;;8.20;;
22660;SDS011;11497;52.222;21.246;2023-07-09T01:44:56;12.40;;;7.93;;
22660;SDS011;11497;52.222;21.246;2023-07-09T01:47:23;11.77;;;7.88;;
22660;SDS011;11497;52.222;21.246;2023-07-09T01:49:53;11.43;;;7.63;;
22660;SDS011;11497;52.222;21.246;2023-07-09T01:54:55;9.70;;;7.90;;
22660;SDS011;11497;52.222;21.246;2023-07-09T01:57:24;9.30;;;7.70;;
22660;SDS011;11497;52.222;21.246;2023-07-09T01:59:53;10.32;;;8.35;;
22660;SDS011;11497;52.222;21.246;2023-07-09T02:02:22;8.82;;;7.50;;
22660;SDS011;11497;52.222;21.246;2023-07-09T02:04:51;10.38;;;7.97;;
22660;SDS011;11497;52.222;21.246;2023-07-09T02:07:19;9.90;;;7.82;;
22660;SDS011;11497;52.222;21.246;2023-07-09T02:09:47;11.52;;;7.68;;
22660;SDS011;11497;52.222;21.246;2023-07-09T02:12:15;10.90;;;7.47;;
22660;SDS011;11497;52.222;21.246;2023-07-09T02:14:44;8.77;;;7.65;;
22660;SDS011;11497;52.222;21.246;2023-07-09T02:17:12;12.65;;;7.88;;
22660;SDS011;11497;52.222;21.246;2023-07-09T02:19:41;10.43;;;7.93;;
22660;SDS011;11497;52.222;21.246;2023-07-09T02:22:08;14.30;;;7.75;;
22660;SDS011;11497;52.222;21.246;2023-07-09T02:24:36;9.68;;;7.53;;
22660;SDS011;11497;52.222;21.246;2023-07-09T02:27:05;13.95;;;7.60;;
22660;SDS011;11497;52.222;21.246;2023-07-09T02:29:34;10.75;;;7.63;;
22660;SDS011;11497;52.222;21.246;2023-07-09T02:32:01;9.60;;;7.38;;
22660;SDS011;11497;52.222;21.246;2023-07-09T02:34:30;8.95;;;7.70;;
22660;SDS011;11497;52.222;21.246;2023-07-09T02:36:58;10.68;;;7.57;;
22660;SDS011;11497;52.222;21.246;2023-07-09T02:39:26;11.57;;;7.88;;
22660;SDS011;11497;52.222;21.246;2023-07-09T02:41:54;10.38;;;7.63;;
22660;SDS011;11497;52.222;21.246;2023-07-09T02:44:22;12.85;;;7.68;;
22660;SDS011;11497;52.222;21.246;2023-07-09T02:46:50;11.90;;;7.68;;
22660;SDS011;11497;52.222;21.246;2023-07-09T02:49:18;12.00;;;8.20;;
22660;SDS011;11497;52.222;21.246;2023-07-09T02:51:46;8.85;;;7.78;;
22660;SDS011;11497;52.222;21.246;2023-07-09T02:54:14;11.20;;;8.00;;
22660;SDS011;11497;52.222;21.246;2023-07-09T02:56:42;10.18;;;8.10;;
22660;SDS011;11497;52.222;21.246;2023-07-09T02:59:09;10.40;;;8.07;;
22660;SDS011;11497;52.222;21.246;2023-07-09T03:01:38;9.90;;;8.07;;
22660;SDS011;11497;52.222;21.246;2023-07-09T03:04:06;9.90;;;7.97;;
22660;SDS011;11497;52.222;21.246;2023-07-09T03:06:35;11.70;;;8.10;;
22660;SDS011;11497;52.222;21.246;2023-07-09T03:09:03;14.95;;;8.57;;
22660;SDS011;11497;52.222;21.246;2023-07-09T03:11:31;10.98;;;8.32;;
22660;SDS011;11497;52.222;21.246;2023-07-09T03:14:00;17.90;;;8.32;;
22660;SDS011;11497;52.222;21.246;2023-07-09T03:16:28;10.55;;;8.25;;
22660;SDS011;11497;52.222;21.246;2023-07-09T03:18:57;11.48;;;7.97;;
22660;SDS011;11497;52.222;21.246;2023-07-09T03:21:25;12.18;;;8.25;;
22660;SDS011;11497;52.222;21.246;2023-07-09T03:23:53;9.60;;;8.07;;
22660;SDS011;11497;52.222;21.246;2023-07-09T03:26:21;12.38;;;8.05;;
22660;SDS011;11497;52.222;21.246;2023-07-09T03:28:49;10.40;;;8.20;;
22660;SDS011;11497;52.222;21.246;2023-07-09T03:31:17;13.45;;;7.97;;
22660;SDS011;11497;52.222;21.246;2023-07-09T03:33:48;9.88;;;7.90;;
22660;SDS011;11497;52.222;21.246;2023-07-09T03:36:16;11.52;;;8.13;;
22660;SDS011;11497;52.222;21.246;2023-07-09T03:38:46;11.07;;;7.50;;
22660;SDS011;11497;52.222;21.246;2023-07-09T03:41:14;10.65;;;7.78;;
22660;SDS011;11497;52.222;21.246;2023-07-09T03:43:42;9.98;;;7.70;;
22660;SDS011;11497;52.222;21.246;2023-07-09T03:46:10;11.40;;;8.05;;
22660;SDS011;11497;52.222;21.246;2023-07-09T03:48:38;10.98;;;7.25;;
22660;SDS011;11497;52.222;21.246;2023-07-09T03:51:06;9.43;;;7.47;;
22660;SDS011;11497;52.222;21.246;2023-07-09T03:53:34;10.60;;;7.15;;
22660;SDS011;11497;52.222;21.246;2023-07-09T03:56:01;10.38;;;7.60;;
22660;SDS011;11497;52.222;21.246;2023-07-09T03:58:30;8.10;;;7.30;;
22660;SDS011;11497;52.222;21.246;2023-07-09T04:00:57;10.25;;;7.40;;
22660;SDS011;11497;52.222;21.246;2023-07-09T04:03:25;9.85;;;6.80;;
22660;SDS011;11497;52.222;21.246;2023-07-09T04:05:53;11.45;;;7.30;;
22660;SDS011;11497;52.222;21.246;2023-07-09T04:08:21;10.80;;;6.95;;
22660;SDS011;11497;52.222;21.246;2023-07-09T04:10:48;8.32;;;6.70;;
22660;SDS011;11497;52.222;21.246;2023-07-09T04:13:16;12.48;;;7.32;;
22660;SDS011;11497;52.222;21.246;2023-07-09T04:15:44;8.05;;;6.30;;
22660;SDS011;11497;52.222;21.246;2023-07-09T04:18:12;10.35;;;6.35;;
22660;SDS011;11497;52.222;21.246;2023-07-09T04:20:39;11.07;;;6.30;;
22660;SDS011;11497;52.222;21.246;2023-07-09T04:23:08;10.88;;;6.43;;
22660;SDS011;11497;52.222;21.246;2023-07-09T04:25:35;8.35;;;6.57;;
22660;SDS011;11497;52.222;21.246;2023-07-09T04:28:04;8.70;;;5.80;;
22660;SDS011;11497;52.222;21.246;2023-07-09T04:30:32;7.28;;;6.10;;
22660;SDS011;11497;52.222;21.246;2023-07-09T04:33:00;6.00;;;5.32;;
22660;SDS011;11497;52.222;21.246;2023-07-09T04:35:28;7.53;;;5.60;;
22660;SDS011;11497;52.222;21.246;2023-07-09T04:37:56;6.53;;;5.55;;
22660;SDS011;11497;52.222;21.246;2023-07-09T04:40:24;13.30;;;5.85;;
22660;SDS011;11497;52.222;21.246;2023-07-09T04:42:52;8.85;;;5.53;;
22660;SDS011;11497;52.222;21.246;2023-07-09T04:45:19;7.82;;;5.78;;
22660;SDS011;11497;52.222;21.246;2023-07-09T04:47:47;8.13;;;5.45;;
22660;SDS011;11497;52.222;21.246;2023-07-09T04:50:14;7.70;;;5.20;;
22660;SDS011;11497;52.222;21.246;2023-07-09T04:52:42;7.53;;;5.18;;
22660;SDS011;11497;52.222;21.246;2023-07-09T04:55:10;7.88;;;5.22;;
22660;SDS011;11497;52.222;21.246;2023-07-09T04:57:38;9.68;;;5.30;;
22660;SDS011;11497;52.222;21.246;2023-07-09T05:00:06;7.10;;;5.32;;
22660;SDS011;11497;52.222;21.246;2023-07-09T05:02:34;7.50;;;5.40;;
22660;SDS011;11497;52.222;21.246;2023-07-09T05:05:02;7.60;;;5.22;;
22660;SDS011;11497;52.222;21.246;2023-07-09T05:07:30;7.53;;;5.00;;
22660;SDS011;11497;52.222;21.246;2023-07-09T05:09:59;8.38;;;4.63;;
22660;SDS011;11497;52.222;21.246;2023-07-09T05:12:27;8.70;;;5.35;;
22660;SDS011;11497;52.222;21.246;2023-07-09T05:14:55;7.88;;;4.72;;
22660;SDS011;11497;52.222;21.246;2023-07-09T05:17:26;7.13;;;4.38;;
22660;SDS011;11497;52.222;21.246;2023-07-09T05:19:53;6.53;;;4.55;;
22660;SDS011;11497;52.222;21.246;2023-07-09T05:22:21;6.65;;;4.03;;
22660;SDS011;11497;52.222;21.246;2023-07-09T05:24:49;9.63;;;3.90;;
22660;SDS011;11497;52.222;21.246;2023-07-09T05:27:17;7.05;;;4.10;;
22660;SDS011;11497;52.222;21.246;2023-07-09T05:29:44;5.55;;;4.47;;
22660;SDS011;11497;52.222;21.246;2023-07-09T05:32:12;4.90;;;4.00;;
22660;SDS011;11497;52.222;21.246;2023-07-09T05:34:39;6.55;;;4.40;;
22660;SDS011;11497;52.222;21.246;2023-07-09T05:37:07;10.88;;;4.85;;
22660;SDS011;11497;52.222;21.246;2023-07-09T05:39:35;7.95;;;5.00;;
22660;SDS011;11497;52.222;21.246;2023-07-09T05:42:03;6.35;;;4.55;;
22660;SDS011;11497;52.222;21.246;2023-07-09T05:44:30;10.35;;;4.55;;
22660;SDS011;11497;52.222;21.246;2023-07-09T05:46:58;6.80;;;4.90;;
22660;SDS011;11497;52.222;21.246;2023-07-09T05:49:26;7.07;;;4.78;;
22660;SDS011;11497;52.222;21.246;2023-07-09T05:51:54;8.38;;;4.72;;
22660;SDS011;11497;52.222;21.246;2023-07-09T05:54:21;8.20;;;4.90;;
22660;SDS011;11497;52.222;21.246;2023-07-09T05:56:49;8.00;;;4.68;;
22660;SDS011;11497;52.222;21.246;2023-07-09T05:59:16;5.50;;;4.40;;
22660;SDS011;11497;52.222;21.246;2023-07-09T06:01:44;6.40;;;4.32;;
22660;SDS011;11497;52.222;21.246;2023-07-09T06:04:12;5.65;;;4.07;;
22660;SDS011;11497;52.222;21.246;2023-07-09T06:06:42;10.23;;;4.80;;
22660;SDS011;11497;52.222;21.246;2023-07-09T06:09:09;6.78;;;4.80;;
22660;SDS011;11497;52.222;21.246;2023-07-09T06:11:37;7.45;;;4.50;;
22660;SDS011;11497;52.222;21.246;2023-07-09T06:14:05;5.57;;;4.25;;
22660;SDS011;11497;52.222;21.246;2023-07-09T06:16:33;7.85;;;4.53;;
22660;SDS011;11497;52.222;21.246;2023-07-09T06:19:01;6.80;;;4.20;;
22660;SDS011;11497;52.222;21.246;2023-07-09T06:21:29;5.07;;;3.83;;
22660;SDS011;11497;52.222;21.246;2023-07-09T06:23:56;4.25;;;3.40;;
22660;SDS011;11497;52.222;21.246;2023-07-09T06:26:24;5.35;;;3.70;;
22660;SDS011;11497;52.222;21.246;2023-07-09T06:28:52;4.45;;;3.45;;
22660;SDS011;11497;52.222;21.246;2023-07-09T06:31:19;5.18;;;3.60;;
22660;SDS011;11497;52.222;21.246;2023-07-09T06:33:47;6.53;;;3.70;;
22660;SDS011;11497;52.222;21.246;2023-07-09T06:36:16;7.85;;;3.67;;
22660;SDS011;11497;52.222;21.246;2023-07-09T06:38:44;6.80;;;3.28;;
22660;SDS011;11497;52.222;21.246;2023-07-09T06:41:12;6.78;;;3.72;;
22660;SDS011;11497;52.222;21.246;2023-07-09T06:43:39;3.67;;;3.08;;
22660;SDS011;11497;52.222;21.246;2023-07-09T06:46:09;7.53;;;3.35;;
22660;SDS011;11497;52.222;21.246;2023-07-09T06:48:38;4.55;;;3.58;;
22660;SDS011;11497;52.222;21.246;2023-07-09T06:51:06;5.13;;;3.70;;
22660;SDS011;11497;52.222;21.246;2023-07-09T06:53:34;5.20;;;3.20;;
22660;SDS011;11497;52.222;21.246;2023-07-09T06:56:03;6.15;;;3.28;;
22660;SDS011;11497;52.222;21.246;2023-07-09T06:58:31;3.90;;;3.08;;
22660;SDS011;11497;52.222;21.246;2023-07-09T07:01:00;6.63;;;3.40;;
22660;SDS011;11497;52.222;21.246;2023-07-09T07:03:32;6.57;;;3.28;;
22660;SDS011;11497;52.222;21.246;2023-07-09T07:06:00;6.28;;;3.25;;
22660;SDS011;11497;52.222;21.246;2023-07-09T07:08:29;6.72;;;3.10;;
22660;SDS011;11497;52.222;21.246;2023-07-09T07:10:57;7.15;;;3.13;;
22660;SDS011;11497;52.222;21.246;2023-07-09T07:13:33;3.90;;;3.00;;
22660;SDS011;11497;52.222;21.246;2023-07-09T07:16:06;7.95;;;3.00;;
22660;SDS011;11497;52.222;21.246;2023-07-09T07:18:34;4.97;;;2.92;;
22660;SDS011;11497;52.222;21.246;2023-07-09T07:21:02;8.77;;;2.85;;
22660;SDS011;11497;52.222;21.246;2023-07-09T07:23:29;5.78;;;2.83;;
22660;SDS011;11497;52.222;21.246;2023-07-09T07:25:57;5.40;;;2.42;;
22660;SDS011;11497;52.222;21.246;2023-07-09T07:28:25;4.05;;;2.28;;
22660;SDS011;11497;52.222;21.246;2023-07-09T07:31:00;5.47;;;2.28;;
22660;SDS011;11497;52.222;21.246;2023-07-09T07:33:27;4.00;;;1.95;;
22660;SDS011;11497;52.222;21.246;2023-07-09T07:35:55;3.45;;;1.90;;
22660;SDS011;11497;52.222;21.246;2023-07-09T07:38:26;2.40;;;1.90;;
22660;SDS011;11497;52.222;21.246;2023-07-09T07:40:54;4.53;;;2.13;;
22660;SDS011;11497;52.222;21.246;2023-07-09T07:43:21;4.78;;;2.10;;
22660;SDS011;11497;52.222;21.246;2023-07-09T07:45:49;2.78;;;2.15;;
22660;SDS011;11497;52.222;21.246;2023-07-09T07:48:17;3.35;;;2.00;;
22660;SDS011;11497;52.222;21.246;2023-07-09T07:50:45;2.53;;;2.10;;
22660;SDS011;11497;52.222;21.246;2023-07-09T07:53:14;2.50;;;1.92;;
22660;SDS011;11497;52.222;21.246;2023-07-09T07:55:42;5.38;;;2.03;;
22660;SDS011;11497;52.222;21.246;2023-07-09T07:58:11;5.55;;;2.08;;
22660;SDS011;11497;52.222;21.246;2023-07-09T08:00:39;3.90;;;1.83;;
22660;SDS011;11497;52.222;21.246;2023-07-09T08:03:07;4.80;;;2.00;;
22660;SDS011;11497;52.222;21.246;2023-07-09T08:05:35;3.35;;;2.08;;
22660;SDS011;11497;52.222;21.246;2023-07-09T08:08:02;3.92;;;1.80;;
22660;SDS011;11497;52.222;21.246;2023-07-09T08:10:30;4.75;;;2.10;;
22660;SDS011;11497;52.222;21.246;2023-07-09T08:12:58;4.20;;;1.95;;
22660;SDS011;11497;52.222;21.246;2023-07-09T08:15:26;3.53;;;1.98;;
22660;SDS011;11497;52.222;21.246;2023-07-09T08:17:53;3.97;;;2.00;;
22660;SDS011;11497;52.222;21.246;2023-07-09T08:20:21;4.50;;;1.60;;
22660;SDS011;11497;52.222;21.246;2023-07-09T08:22:49;3.55;;;1.75;;
22660;SDS011;11497;52.222;21.246;2023-07-09T08:25:17;2.13;;;1.80;;
22660;SDS011;11497;52.222;21.246;2023-07-09T08:27:44;2.47;;;1.75;;
22660;SDS011;11497;52.222;21.246;2023-07-09T08:30:12;3.17;;;1.75;;
22660;SDS011;11497;52.222;21.246;2023-07-09T08:32:40;1.65;;;1.52;;
22660;SDS011;11497;52.222;21.246;2023-07-09T08:35:08;3.30;;;1.95;;
22660;SDS011;11497;52.222;21.246;2023-07-09T08:37:39;2.90;;;1.83;;
22660;SDS011;11497;52.222;21.246;2023-07-09T08:40:09;5.10;;;1.77;;
22660;SDS011;11497;52.222;21.246;2023-07-09T08:42:43;3.17;;;1.73;;
22660;SDS011;11497;52.222;21.246;2023-07-09T08:50:24;5.85;;;1.90;;
22660;SDS011;11497;52.222;21.246;2023-07-09T08:52:53;4.38;;;1.67;;
22660;SDS011;11497;52.222;21.246;2023-07-09T08:55:27;3.95;;;1.75;;
22660;SDS011;11497;52.222;21.246;2023-07-09T09:00:27;2.78;;;1.60;;
22660;SDS011;11497;52.222;21.246;2023-07-09T09:03:10;2.67;;;1.73;;
22660;SDS011;11497;52.222;21.246;2023-07-09T09:05:39;2.58;;;1.58;;
22660;SDS011;11497;52.222;21.246;2023-07-09T09:08:11;2.58;;;1.85;;
22660;SDS011;11497;52.222;21.246;2023-07-09T09:10:48;1.55;;;1.42;;
22660;SDS011;11497;52.222;21.246;2023-07-09T09:13:16;3.05;;;1.75;;
22660;SDS011;11497;52.222;21.246;2023-07-09T09:15:46;2.13;;;1.58;;
22660;SDS011;11497;52.222;21.246;2023-07-09T09:23:36;1.77;;;1.40;;
22660;SDS011;11497;52.222;21.246;2023-07-09T09:26:09;2.22;;;1.70;;
22660;SDS011;11497;52.222;21.246;2023-07-09T09:28:41;1.83;;;1.50;;
22660;SDS011;11497;52.222;21.246;2023-07-09T09:31:12;2.33;;;1.75;;
22660;SDS011;11497;52.222;21.246;2023-07-09T09:33:40;3.20;;;1.25;;
22660;SDS011;11497;52.222;21.246;2023-07-09T09:36:16;4.10;;;1.40;;
22660;SDS011;11497;52.222;21.246;2023-07-09T09:38:44;4.28;;;1.40;;
22660;SDS011;11497;52.222;21.246;2023-07-09T09:41:13;1.58;;;1.20;;
22660;SDS011;11497;52.222;21.246;2023-07-09T09:43:41;1.90;;;1.30;;
22660;SDS011;11497;52.222;21.246;2023-07-09T09:46:12;2.10;;;1.30;;
22660;SDS011;11497;52.222;21.246;2023-07-09T09:48:44;2.20;;;1.20;;
22660;SDS011;11497;52.222;21.246;2023-07-09T09:51:12;1.65;;;1.25;;
22660;SDS011;11497;52.222;21.246;2023-07-09T09:53:41;1.50;;;1.40;;
22660;SDS011;11497;52.222;21.246;2023-07-09T09:56:13;1.77;;;1.35;;
22660;SDS011;11497;52.222;21.246;2023-07-09T09:58:41;2.67;;;1.42;;
22660;SDS011;11497;52.222;21.246;2023-07-09T10:01:16;3.78;;;1.33;;
22660;SDS011;11497;52.222;21.246;2023-07-09T10:03:47;1.45;;;1.25;;
22660;SDS011;11497;52.222;21.246;2023-07-09T10:06:19;1.85;;;1.20;;
22660;SDS011;11497;52.222;21.246;2023-07-09T10:08:55;1.27;;;1.10;;
22660;SDS011;11497;52.222;21.246;2023-07-09T10:13:53;1.77;;;1.30;;
22660;SDS011;11497;52.222;21.246;2023-07-09T10:18:59;3.55;;;1.38;;
22660;SDS011;11497;52.222;21.246;2023-07-09T10:26:38;1.45;;;1.10;;
22660;SDS011;11497;52.222;21.246;2023-07-09T10:39:51;5.00;;;1.17;;
22660;SDS011;11497;52.222;21.246;2023-07-09T10:42:25;2.40;;;1.80;;
22660;SDS011;11497;52.222;21.246;2023-07-09T10:45:01;1.65;;;1.30;;
22660;SDS011;11497;52.222;21.246;2023-07-09T10:47:34;2.42;;;1.30;;
22660;SDS011;11497;52.222;21.246;2023-07-09T10:50:05;1.95;;;1.17;;
22660;SDS011;11497;52.222;21.246;2023-07-09T10:52:36;4.72;;;1.50;;
22660;SDS011;11497;52.222;21.246;2023-07-09T10:55:05;1.88;;;1.38;;
22660;SDS011;11497;52.222;21.246;2023-07-09T11:00:10;1.95;;;1.42;;
22660;SDS011;11497;52.222;21.246;2023-07-09T11:02:39;2.60;;;1.67;;
22660;SDS011;11497;52.222;21.246;2023-07-09T11:05:07;5.00;;;1.60;;
22660;SDS011;11497;52.222;21.246;2023-07-09T11:07:39;1.95;;;1.17;;
22660;SDS011;11497;52.222;21.246;2023-07-09T11:10:25;2.70;;;1.50;;
22660;SDS011;11497;52.222;21.246;2023-07-09T11:12:59;3.95;;;1.52;;
22660;SDS011;11497;52.222;21.246;2023-07-09T11:15:31;1.80;;;1.50;;
22660;SDS011;11497;52.222;21.246;2023-07-09T11:18:00;3.03;;;1.65;;
22660;SDS011;11497;52.222;21.246;2023-07-09T11:20:36;4.32;;;1.60;;
22660;SDS011;11497;52.222;21.246;2023-07-09T11:23:06;5.65;;;1.73;;
22660;SDS011;11497;52.222;21.246;2023-07-09T11:25:41;2.80;;;1.80;;
22660;SDS011;11497;52.222;21.246;2023-07-09T11:28:09;2.28;;;1.42;;
22660;SDS011;11497;52.222;21.246;2023-07-09T11:33:26;1.48;;;1.25;;
22660;SDS011;11497;52.222;21.246;2023-07-09T11:36:06;1.95;;;1.40;;
22660;SDS011;11497;52.222;21.246;2023-07-09T11:38:44;4.55;;;1.60;;
22660;SDS011;11497;52.222;21.246;2023-07-09T11:49:18;1.50;;;1.40;;
22660;SDS011;11497;52.222;21.246;2023-07-09T11:51:49;1.77;;;1.50;;
22660;SDS011;11497;52.222;21.246;2023-07-09T11:54:18;2.55;;;1.45;;
22660;SDS011;11497;52.222;21.246;2023-07-09T11:56:56;2.28;;;1.23;;
22660;SDS011;11497;52.222;21.246;2023-07-09T11:59:24;2.08;;;1.25;;
22660;SDS011;11497;52.222;21.246;2023-07-09T12:01:53;1.23;;;1.13;;
22660;SDS011;11497;52.222;21.246;2023-07-09T12:04:27;1.55;;;1.45;;
22660;SDS011;11497;52.222;21.246;2023-07-09T12:07:01;1.52;;;1.02;;
22660;SDS011;11497;52.222;21.246;2023-07-09T12:09:30;2.45;;;1.60;;
22660;SDS011;11497;52.222;21.246;2023-07-09T12:11:58;2.42;;;1.23;;
22660;SDS011;11497;52.222;21.246;2023-07-09T12:14:26;2.25;;;1.40;;
22660;SDS011;11497;52.222;21.246;2023-07-09T12:16:54;1.98;;;1.40;;
22660;SDS011;11497;52.222;21.246;2023-07-09T12:19:23;1.67;;;1.50;;
22660;SDS011;11497;52.222;21.246;2023-07-09T12:21:52;1.75;;;1.60;;
22660;SDS011;11497;52.222;21.246;2023-07-09T12:24:22;2.25;;;1.63;;
22660;SDS011;11497;52.222;21.246;2023-07-09T12:26:57;2.38;;;1.50;;
22660;SDS011;11497;52.222;21.246;2023-07-09T12:29:25;3.22;;;1.50;;
22660;SDS011;11497;52.222;21.246;2023-07-09T12:31:55;5.00;;;1.70;;
22660;SDS011;11497;52.222;21.246;2023-07-09T12:34:24;2.42;;;1.52;;
22660;SDS011;11497;52.222;21.246;2023-07-09T12:36:52;1.80;;;1.48;;
22660;SDS011;11497;52.222;21.246;2023-07-09T12:39:23;1.60;;;1.50;;
22660;SDS011;11497;52.222;21.246;2023-07-09T12:41:51;3.67;;;1.58;;
22660;SDS011;11497;52.222;21.246;2023-07-09T12:44:22;2.30;;;1.55;;
22660;SDS011;11497;52.222;21.246;2023-07-09T12:46:54;2.30;;;2.00;;
22660;SDS011;11497;52.222;21.246;2023-07-09T12:49:25;3.45;;;1.58;;
22660;SDS011;11497;52.222;21.246;2023-07-09T12:51:54;3.28;;;1.48;;
22660;SDS011;11497;52.222;21.246;2023-07-09T12:54:22;2.55;;;1.80;;
22660;SDS011;11497;52.222;21.246;2023-07-09T12:56:52;2.67;;;1.77;;
22660;SDS011;11497;52.222;21.246;2023-07-09T12:59:23;2.95;;;1.70;;
22660;SDS011;11497;52.222;21.246;2023-07-09T13:02:37;2.45;;;1.95;;
22660;SDS011;11497;52.222;21.246;2023-07-09T13:04:43;3.10;;;1.90;;
22660;SDS011;11497;52.222;21.246;2023-07-09T13:09:51;2.20;;;1.80;;
22660;SDS011;11497;52.222;21.246;2023-07-09T13:12:29;2.88;;;1.40;;
22660;SDS011;11497;52.222;21.246;2023-07-09T13:14:58;2.42;;;1.60;;
22660;SDS011;11497;52.222;21.246;2023-07-09T13:17:28;3.35;;;1.90;;
22660;SDS011;11497;52.222;21.246;2023-07-09T13:19:56;2.28;;;1.60;;
22660;SDS011;11497;52.222;21.246;2023-07-09T13:22:24;5.88;;;1.88;;
22660;SDS011;11497;52.222;21.246;2023-07-09T13:24:52;3.65;;;1.92;;
22660;SDS011;11497;52.222;21.246;2023-07-09T13:27:20;2.67;;;2.03;;
22660;SDS011;11497;52.222;21.246;2023-07-09T13:29:48;2.00;;;1.80;;
22660;SDS011;11497;52.222;21.246;2023-07-09T13:32:16;2.67;;;2.05;;
22660;SDS011;11497;52.222;21.246;2023-07-09T13:34:43;2.42;;;2.13;;
22660;SDS011;11497;52.222;21.246;2023-07-09T13:37:12;2.28;;;2.05;;
22660;SDS011;11497;52.222;21.246;2023-07-09T13:39:40;3.10;;;1.70;;
22660;SDS011;11497;52.222;21.246;2023-07-09T13:42:10;3.10;;;2.17;;
22660;SDS011;11497;52.222;21.246;2023-07-09T13:44:39;2.28;;;1.98;;
22660;SDS011;11497;52.222;21.246;2023-07-09T13:47:10;4.93;;;1.90;;
22660;SDS011;11497;52.222;21.246;2023-07-09T13:49:39;2.95;;;1.85;;
22660;SDS011;11497;52.222;21.246;2023-07-09T13:52:08;2.88;;;1.73;;
22660;SDS011;11497;52.222;21.246;2023-07-09T13:54:36;2.88;;;1.98;;
22660;SDS011;11497;52.222;21.246;2023-07-09T13:57:05;4.25;;;2.00;;
22660;SDS011;11497;52.222;21.246;2023-07-09T13:59:33;2.58;;;1.70;;
22660;SDS011;11497;52.222;21.246;2023-07-09T14:02:01;2.25;;;1.88;;
22660;SDS011;11497;52.222;21.246;2023-07-09T14:04:32;1.73;;;1.63;;
22660;SDS011;11497;52.222;21.246;2023-07-09T14:07:00;2.35;;;2.00;;
22660;SDS011;11497;52.222;21.246;2023-07-09T14:09:28;2.45;;;1.73;;
22660;SDS011;11497;52.222;21.246;2023-07-09T14:11:56;4.22;;;2.03;;
22660;SDS011;11497;52.222;21.246;2023-07-09T14:14:25;2.17;;;1.98;;
22660;SDS011;11497;52.222;21.246;2023-07-09T14:16:57;1.92;;;1.70;;
22660;SDS011;11497;52.222;21.246;2023-07-09T14:19:26;1.73;;;1.63;;
22660;SDS011;11497;52.222;21.246;2023-07-09T14:21:55;3.55;;;1.95;;
22660;SDS011;11497;52.222;21.246;2023-07-09T14:24:24;2.42;;;1.98;;
22660;SDS011;11497;52.222;21.246;2023-07-09T14:26:53;1.95;;;1.85;;
22660;SDS011;11497;52.222;21.246;2023-07-09T14:29:21;2.65;;;1.70;;
22660;SDS011;11497;52.222;21.246;2023-07-09T14:31:49;2.20;;;2.00;;
22660;SDS011;11497;52.222;21.246;2023-07-09T14:34:21;2.35;;;2.00;;
22660;SDS011;11497;52.222;21.246;2023-07-09T14:36:50;2.10;;;1.90;;
22660;SDS011;11497;52.222;21.246;2023-07-09T14:39:18;2.20;;;2.00;;
22660;SDS011;11497;52.222;21.246;2023-07-09T14:41:45;2.20;;;2.00;;
22660;SDS011;11497;52.222;21.246;2023-07-09T14:46:49;5.47;;;2.03;;
22660;SDS011;11497;52.222;21.246;2023-07-09T14:49:17;3.08;;;1.98;;
22660;SDS011;11497;52.222;21.246;2023-07-09T14:51:46;2.33;;;2.10;;
22660;SDS011;11497;52.222;21.246;2023-07-09T14:54:21;3.80;;;2.20;;
22660;SDS011;11497;52.222;21.246;2023-07-09T14:56:51;5.03;;;2.50;;
22660;SDS011;11497;52.222;21.246;2023-07-09T14:59:19;3.58;;;2.33;;
22660;SDS011;11497;52.222;21.246;2023-07-09T15:01:47;2.15;;;1.90;;
22660;SDS011;11497;52.222;21.246;2023-07-09T15:06:49;2.13;;;1.92;;
22660;SDS011;11497;52.222;21.246;2023-07-09T15:09:20;2.40;;;2.20;;
22660;SDS011;11497;52.222;21.246;2023-07-09T15:11:49;4.30;;;1.98;;
22660;SDS011;11497;52.222;21.246;2023-07-09T15:14:17;5.22;;;2.35;;
22660;SDS011;11497;52.222;21.246;2023-07-09T15:16:48;2.22;;;2.03;;
22660;SDS011;11497;52.222;21.246;2023-07-09T15:19:17;3.03;;;1.95;;
22660;SDS011;11497;52.222;21.246;2023-07-09T15:21:49;2.50;;;1.90;;
22660;SDS011;11497;52.222;21.246;2023-07-09T15:24:21;2.40;;;1.85;;
22660;SDS011;11497;52.222;21.246;2023-07-09T15:26:51;2.13;;;1.92;;
22660;SDS011;11497;52.222;21.246;2023-07-09T15:29:19;3.40;;;2.00;;
22660;SDS011;11497;52.222;21.246;2023-07-09T15:31:48;3.22;;;1.90;;
22660;SDS011;11497;52.222;21.246;2023-07-09T15:34:16;2.28;;;2.00;;
22660;SDS011;11497;52.222;21.246;2023-07-09T15:36:48;4.13;;;2.13;;
22660;SDS011;11497;52.222;21.246;2023-07-09T15:39:16;2.13;;;1.92;;
22660;SDS011;11497;52.222;21.246;2023-07-09T15:41:44;1.95;;;1.77;;
22660;SDS011;11497;52.222;21.246;2023-07-09T15:44:13;4.85;;;2.45;;